Time;durP1;ratioP1;P1;durP2;ratioP2;P2;SDS_P1;SDS_P2;PMS_P1;PMS_P2;Temp;Humidity;BMP_temperature;BMP_pressure;BME280_temperature;BME280_humidity;BME280_pressure;Samples;Min_cycle;Max_cycle;Signal;HPM_P1;HPM_P2
2023/04/20 00:02:01;;;;;;;2.47;2.00;;;12.40;45.40;;;;;;5012648;28;20028;-89
2023/04/20 00:04:28;;;;;;;3.63;2.20;;;12.40;45.50;;;;;;5008105;28;20477;-88
2023/04/20 00:06:57;;;;;;;3.38;2.17;;;12.40;45.50;;;;;;5017182;28;20061;-89
2023/04/20 00:09:25;;;;;;;3.33;1.90;;;12.40;45.60;;;;;;5008741;28;20396;-89
2023/04/20 00:11:51;;;;;;;4.18;2.33;;;12.40;45.60;;;;;;5021513;28;20034;-89
2023/04/20 00:14:17;;;;;;;3.03;2.08;;;12.30;45.50;;;;;;4997515;28;20041;-90
2023/04/20 00:16:43;;;;;;;3.58;2.03;;;12.30;45.50;;;;;;5021930;28;20038;-92
2023/04/20 00:19:09;;;;;;;5.63;3.10;;;12.20;45.30;;;;;;4995043;28;20086;-90
2023/04/20 00:21:35;;;;;;;2.72;2.05;;;12.20;45.40;;;;;;5018380;28;20025;-90
2023/04/20 00:24:01;;;;;;;2.50;1.80;;;12.20;45.40;;;;;;5015377;28;20032;-88
2023/04/20 00:26:27;;;;;;;4.25;2.20;;;12.10;45.30;;;;;;5005892;28;20030;-87
2023/04/20 00:28:54;;;;;;;2.35;1.58;;;12.10;45.30;;;;;;5016627;28;20038;-86
2023/04/20 00:31:20;;;;;;;2.30;1.95;;;12.10;45.40;;;;;;4983051;28;20117;-85
2023/04/20 00:33:49;;;;;;;2.15;1.70;;;12.00;45.20;;;;;;4996844;28;20036;-89
2023/04/20 00:36:15;;;;;;;2.22;1.85;;;12.00;45.20;;;;;;4988094;28;20031;-85
2023/04/20 00:38:41;;;;;;;2.55;1.70;;;11.90;45.10;;;;;;4977029;28;20042;-89
2023/04/20 00:41:07;;;;;;;2.17;1.88;;;11.90;45.20;;;;;;4994690;28;20096;-92
2023/04/20 00:43:33;;;;;;;3.28;1.90;;;11.80;45.10;;;;;;5001463;28;20036;-89
2023/04/20 00:45:59;;;;;;;3.45;1.70;;;11.80;45.10;;;;;;5019167;28;20041;-90
2023/04/20 00:48:25;;;;;;;2.40;2.00;;;11.80;45.20;;;;;;4993382;28;20501;-88
2023/04/20 00:50:51;;;;;;;3.65;2.53;;;11.70;45.00;;;;;;4998868;28;20041;-85
2023/04/20 00:53:18;;;;;;;3.47;1.80;;;11.70;45.10;;;;;;5008010;28;20038;-85
2023/04/20 00:55:44;;;;;;;2.42;1.88;;;11.70;45.70;;;;;;5007966;28;20032;-86
2023/04/20 00:58:12;;;;;;;2.20;1.98;;;11.70;45.10;;;;;;5011765;28;20076;-88
2023/04/20 01:00:39;;;;;;;5.07;1.80;;;11.60;45.00;;;;;;5024767;28;20068;-90
2023/04/20 01:03:06;;;;;;;2.42;1.77;;;11.60;45.00;;;;;;5014624;28;20113;-88
2023/04/20 01:05:32;;;;;;;3.40;1.90;;;11.60;45.10;;;;;;5016913;28;20038;-88
2023/04/20 01:07:58;;;;;;;1.92;1.55;;;11.50;44.90;;;;;;5020266;28;20025;-88
2023/04/20 01:10:29;;;;;;;3.22;1.92;;;11.50;45.00;;;;;;5014192;28;20026;-88
2023/04/20 01:12:55;;;;;;;2.45;1.95;;;11.40;44.90;;;;;;5016097;28;20025;-89
2023/04/20 01:15:21;;;;;;;3.30;1.88;;;11.40;44.90;;;;;;5016888;28;20104;-88
2023/04/20 01:17:48;;;;;;;2.72;1.85;;;11.40;45.00;;;;;;5013853;28;20120;-89
2023/04/20 01:20:14;;;;;;;3.78;1.58;;;11.30;44.80;;;;;;5017226;28;20128;-90
2023/04/20 01:22:45;;;;;;;1.98;1.77;;;11.30;44.90;;;;;;5008559;28;20392;-89
2023/04/20 01:25:11;;;;;;;2.75;1.60;;;11.30;45.00;;;;;;5020582;28;20112;-86
2023/04/20 01:27:37;;;;;;;3.25;1.90;;;11.20;44.80;;;;;;5011160;28;20036;-86
2023/04/20 01:30:04;;;;;;;3.00;1.55;;;11.20;44.90;;;;;;5020659;28;20401;-86
2023/04/20 01:32:30;;;;;;;2.25;2.00;;;11.20;45.00;;;;;;5014190;28;20045;-86
2023/04/20 01:34:59;;;;;;;4.10;1.70;;;11.10;44.80;;;;;;5014797;28;20049;-86
2023/04/20 01:37:25;;;;;;;4.75;1.90;;;11.10;44.90;;;;;;5024383;28;20045;-86
2023/04/20 01:39:51;;;;;;;2.92;1.50;;;11.10;45.00;;;;;;5021764;28;20037;-86
2023/04/20 01:42:20;;;;;;;2.55;1.48;;;11.10;45.00;;;;;;5020960;28;20042;-86
2023/04/20 01:44:48;;;;;;;2.17;1.48;;;11.00;44.90;;;;;;4996610;28;20095;-86
2023/04/20 01:47:14;;;;;;;4.28;1.67;;;11.00;44.90;;;;;;5017793;28;20070;-87
2023/04/20 01:49:40;;;;;;;3.28;1.80;;;11.00;45.00;;;;;;5026299;28;20053;-86
2023/04/20 01:52:08;;;;;;;3.88;2.15;;;10.90;44.80;;;;;;5024856;28;20103;-87
2023/04/20 01:54:34;;;;;;;4.35;2.08;;;11.00;45.10;;;;;;5023873;28;20421;-86
2023/04/20 01:57:01;;;;;;;1.98;1.83;;;10.90;44.90;;;;;;5029216;28;20037;-86
2023/04/20 01:59:27;;;;;;;3.72;1.90;;;10.90;45.00;;;;;;5017896;28;20106;-84
2023/04/20 02:01:53;;;;;;;4.85;2.13;;;10.90;45.00;;;;;;5026671;28;20044;-83
2023/04/20 02:04:20;;;;;;;4.70;1.90;;;10.80;44.80;;;;;;5023733;28;20091;-83
2023/04/20 02:06:46;;;;;;;2.22;1.40;;;10.80;44.90;;;;;;5027408;28;20025;-84
2023/04/20 02:09:11;;;;;;;3.15;2.20;;;10.80;45.00;;;;;;5031222;28;20045;-84
2023/04/20 02:11:37;;;;;;;4.07;1.83;;;10.70;44.80;;;;;;5011690;28;20466;-86
2023/04/20 02:14:05;;;;;;;1.83;1.70;;;10.70;44.80;;;;;;5007695;28;20061;-87
2023/04/20 02:16:31;;;;;;;3.58;2.15;;;10.70;44.80;;;;;;5019717;28;20033;-85
2023/04/20 02:18:57;;;;;;;3.15;2.17;;;10.70;44.90;;;;;;5024202;28;20068;-86
2023/04/20 02:21:23;;;;;;;2.85;1.90;;;10.60;44.80;;;;;;5012538;28;20133;-87
2023/04/20 02:23:49;;;;;;;4.53;2.17;;;10.60;44.80;;;;;;5019422;28;20121;-87
2023/04/20 02:26:15;;;;;;;3.63;1.85;;;10.60;44.80;;;;;;5020333;28;20112;-86
2023/04/20 02:28:42;;;;;;;4.25;2.00;;;10.60;44.80;;;;;;5025313;28;20519;-86
2023/04/20 02:31:08;;;;;;;3.13;2.10;;;10.60;44.90;;;;;;5020289;28;20469;-89
2023/04/20 02:33:33;;;;;;;4.75;2.20;;;10.50;44.70;;;;;;5036317;28;20063;-88
2023/04/20 02:36:00;;;;;;;3.63;2.08;;;10.50;44.80;;;;;;5025021;28;20116;-88
2023/04/20 02:38:26;;;;;;;2.50;2.17;;;10.50;44.90;;;;;;5025531;28;20029;-89
2023/04/20 02:40:52;;;;;;;4.55;2.15;;;10.40;44.70;;;;;;5023815;28;20083;-88
2023/04/20 02:43:19;;;;;;;4.40;2.17;;;10.40;44.80;;;;;;4990382;28;20091;-87
2023/04/20 02:45:46;;;;;;;4.13;2.53;;;10.40;44.90;;;;;;5003828;28;20092;-88
2023/04/20 02:48:12;;;;;;;3.00;2.30;;;10.30;44.80;;;;;;5006230;28;20046;-87
2023/04/20 02:50:41;;;;;;;3.08;2.22;;;10.40;45.00;;;;;;5025589;28;20041;-87
2023/04/20 02:53:16;;;;;;;3.63;2.30;;;10.30;45.50;;;;;;5000503;28;20041;-85
2023/04/20 02:55:45;;;;;;;4.00;2.30;;;10.30;45.00;;;;;;5004814;28;20029;-85
2023/04/20 02:58:24;;;;;;;3.75;2.40;;;10.30;45.10;;;;;;5019995;28;20032;-89
2023/04/20 03:01:11;;;;;;;4.20;2.40;;;10.30;45.20;;;;;;5012823;28;20045;-90
2023/04/20 03:03:38;;;;;;;8.75;3.72;;;10.20;45.00;;;;;;5023785;28;20050;-90
2023/04/20 03:06:07;;;;;;;4.40;2.30;;;10.20;45.20;;;;;;5022214;28;20119;-90
2023/04/20 03:08:33;;;;;;;6.15;2.55;;;10.20;45.20;;;;;;5028895;28;20125;-91
2023/04/20 03:11:11;;;;;;;3.92;2.83;;;10.10;45.10;;;;;;5023892;28;20036;-91
2023/04/20 03:13:37;;;;;;;5.32;3.15;;;10.10;45.20;;;;;;5023954;28;20033;-92
2023/04/20 03:16:04;;;;;;;4.28;3.08;;;10.10;45.30;;;;;;5007212;28;20377;-91
2023/04/20 03:18:43;;;;;;;3.95;3.08;;;10.10;45.30;;;;;;5024057;28;20121;-92
2023/04/20 03:21:10;;;;;;;5.93;3.20;;;10.00;45.20;;;;;;5028659;28;20080;-90
2023/04/20 03:23:35;;;;;;;5.47;3.20;;;10.00;45.30;;;;;;5006421;28;20057;-89
2023/04/20 03:26:03;;;;;;;5.45;2.85;;;10.00;45.40;;;;;;5028946;28;20120;-91
2023/04/20 03:28:55;;;;;;;3.67;2.63;;;9.90;45.30;;;;;;5013494;28;20130;-92
2023/04/20 03:31:24;;;;;;;6.22;3.05;;;9.90;45.40;;;;;;5025104;28;20432;-92
2023/04/20 03:33:51;;;;;;;9.18;3.60;;;9.90;45.50;;;;;;5023087;28;20518;-86
2023/04/20 03:36:17;;;;;;;7.05;2.97;;;9.80;45.40;;;;;;5020897;28;20037;-85
2023/04/20 03:38:43;;;;;;;6.60;3.70;;;9.70;45.30;;;;;;5024289;28;20052;-85
2023/04/20 03:41:10;;;;;;;6.22;3.58;;;9.70;45.40;;;;;;5018661;28;20623;-87
2023/04/20 03:43:37;;;;;;;5.53;3.40;;;9.70;46.10;;;;;;5018388;28;20045;-84
2023/04/20 03:46:03;;;;;;;4.07;2.95;;;9.70;45.60;;;;;;5027050;28;20120;-86
2023/04/20 03:48:29;;;;;;;6.82;3.78;;;9.60;45.50;;;;;;5025587;28;20049;-85
2023/04/20 03:50:55;;;;;;;6.43;3.63;;;9.60;45.60;;;;;;5033296;28;20038;-85
2023/04/20 03:53:21;;;;;;;4.07;3.67;;;9.60;45.70;;;;;;5038816;28;20032;-84
2023/04/20 03:55:48;;;;;;;6.18;3.08;;;9.60;45.80;;;;;;5033851;28;20060;-86
2023/04/20 03:58:19;;;;;;;4.07;3.60;;;9.50;45.70;;;;;;5050411;28;20068;-85
2023/04/20 04:01:06;;;;;;;4.53;3.33;;;9.50;45.70;;;;;;5052655;28;20029;-84
2023/04/20 04:03:34;;;;;;;5.10;3.25;;;9.50;45.80;;;;;;5054703;28;20041;-84
2023/04/20 04:06:02;;;;;;;4.30;3.50;;;9.50;45.80;;;;;;5035753;28;20037;-85
2023/04/20 04:08:30;;;;;;;5.78;3.30;;;9.40;45.70;;;;;;5038664;28;20029;-85
2023/04/20 04:10:56;;;;;;;7.47;3.80;;;9.40;45.80;;;;;;5016095;28;20045;-84
2023/04/20 04:13:23;;;;;;;8.02;4.63;;;9.40;45.90;;;;;;5012164;28;20459;-83
2023/04/20 04:15:49;;;;;;;5.53;3.53;;;9.40;46.00;;;;;;5012818;28;20121;-83
2023/04/20 04:18:16;;;;;;;5.00;4.03;;;9.30;45.90;;;;;;5021398;28;20037;-83
2023/04/20 04:20:42;;;;;;;3.78;3.35;;;9.30;45.90;;;;;;5015305;28;20049;-84
2023/04/20 04:23:10;;;;;;;4.38;3.15;;;9.30;46.00;;;;;;4999939;28;20034;-84
2023/04/20 04:25:47;;;;;;;6.15;4.13;;;9.30;46.10;;;;;;5006284;28;20114;-83
2023/04/20 04:28:15;;;;;;;7.35;3.75;;;9.20;46.00;;;;;;5024215;28;20034;-83
2023/04/20 04:30:50;;;;;;;4.88;3.75;;;9.20;46.70;;;;;;5018721;28;20349;-83
2023/04/20 04:33:17;;;;;;;5.35;3.47;;;9.20;46.20;;;;;;5028635;28;20052;-82
2023/04/20 04:35:47;;;;;;;4.85;3.90;;;9.10;46.10;;;;;;5033393;28;20053;-83
2023/04/20 04:38:13;;;;;;;5.50;3.60;;;9.10;46.20;;;;;;4998319;28;20115;-83
2023/04/20 04:40:44;;;;;;;6.10;4.25;;;9.10;46.30;;;;;;5022678;28;20045;-83
2023/04/20 04:43:10;;;;;;;6.75;3.53;;;9.10;46.30;;;;;;5020096;28;20036;-84
2023/04/20 04:45:40;;;;;;;5.72;4.03;;;9.10;46.40;;;;;;5003289;28;20097;-82
2023/04/20 04:48:11;;;;;;;6.13;4.20;;;9.00;46.30;;;;;;5017802;28;20045;-83
2023/04/20 04:50:38;;;;;;;6.47;3.92;;;9.00;46.40;;;;;;5019821;28;20124;-84
2023/04/20 04:53:05;;;;;;;5.03;3.20;;;9.00;46.50;;;;;;5013136;28;20084;-85
2023/04/20 04:55:32;;;;;;;6.10;4.53;;;9.00;46.50;;;;;;4996465;28;20036;-83
2023/04/20 04:57:58;;;;;;;7.32;4.20;;;9.00;46.60;;;;;;5010800;28;20798;-82
2023/04/20 05:00:24;;;;;;;6.03;4.60;;;8.90;46.40;;;;;;5010906;28;20128;-83
2023/04/20 05:02:54;;;;;;;7.72;5.25;;;8.90;46.50;;;;;;5018408;28;20041;-83
2023/04/20 05:05:20;;;;;;;6.95;4.07;;;8.90;46.60;;;;;;5012112;28;20037;-81
2023/04/20 05:07:46;;;;;;;7.03;4.53;;;8.90;46.70;;;;;;5012667;28;20099;-81
2023/04/20 05:10:12;;;;;;;6.07;4.95;;;8.80;46.60;;;;;;5013040;28;20107;-85
2023/04/20 05:12:38;;;;;;;5.47;4.68;;;8.80;46.60;;;;;;5017159;28;20037;-86
2023/04/20 05:15:05;;;;;;;6.57;3.97;;;8.80;46.70;;;;;;5005582;28;20048;-89
2023/04/20 05:17:31;;;;;;;5.72;4.03;;;8.80;46.80;;;;;;5029329;28;20101;-89
2023/04/20 05:19:57;;;;;;;6.63;4.40;;;8.80;46.90;;;;;;5014272;28;20129;-89
2023/04/20 05:22:23;;;;;;;7.20;4.53;;;8.70;46.70;;;;;;5027096;28;20115;-85
2023/04/20 05:24:49;;;;;;;6.30;4.28;;;8.70;46.80;;;;;;5012139;28;20056;-84
2023/04/20 05:27:15;;;;;;;5.55;4.35;;;8.70;46.80;;;;;;5015747;28;20029;-81
2023/04/20 05:29:41;;;;;;;7.13;4.40;;;8.70;46.90;;;;;;5011085;28;20113;-89
2023/04/20 05:32:06;;;;;;;6.93;4.35;;;8.70;47.00;;;;;;5023932;28;20029;-85
2023/04/20 05:34:32;;;;;;;7.03;4.13;;;8.70;47.00;;;;;;5013900;28;20062;-87
2023/04/20 05:36:58;;;;;;;8.43;5.63;;;8.70;47.00;;;;;;5024201;28;20035;-88
2023/04/20 05:39:25;;;;;;;5.95;4.32;;;8.70;47.10;;;;;;5008129;28;20042;-87
2023/04/20 05:41:51;;;;;;;6.47;4.72;;;8.70;47.30;;;;;;5034436;28;20038;-92
2023/04/20 05:44:17;;;;;;;7.60;5.28;;;8.80;48.20;;;;;;5022194;28;21279;-88
2023/04/20 05:46:42;;;;;;;6.38;5.10;;;8.80;48.80;;;;;;5017359;28;20033;-85
2023/04/20 05:49:08;;;;;;;6.80;5.00;;;8.90;49.50;;;;;;5015195;28;20049;-87
2023/04/20 05:51:34;;;;;;;7.30;5.57;;;9.00;50.10;;;;;;5014732;28;20095;-89
2023/04/20 05:54:00;;;;;;;11.23;6.40;;;9.20;51.20;;;;;;5020952;28;20116;-90
2023/04/20 05:56:26;;;;;;;8.05;5.57;;;9.40;52.10;;;;;;5026208;28;20531;-89
2023/04/20 05:58:54;;;;;;;6.25;4.88;;;9.50;52.50;;;;;;5015266;28;20044;-83
2023/04/20 06:01:20;;;;;;;12.07;5.65;;;9.60;52.70;;;;;;5034016;28;20034;-92
2023/04/20 06:03:47;;;;;;;6.53;5.68;;;9.70;53.10;;;;;;5024540;28;20061;-92
2023/04/20 06:06:14;;;;;;;8.25;4.95;;;9.90;53.70;;;;;;5020706;28;20045;-86
2023/04/20 06:08:40;;;;;;;7.68;5.25;;;10.00;54.00;;;;;;5023519;28;20052;-89
2023/04/20 06:11:06;;;;;;;5.93;4.68;;;10.10;54.30;;;;;;5024044;28;20040;-92
2023/04/20 06:13:32;;;;;;;8.35;5.15;;;10.30;54.90;;;;;;5022461;28;20030;-85
2023/04/20 06:15:58;;;;;;;7.68;5.20;;;10.40;54.90;;;;;;5009347;28;20036;-86
2023/04/20 06:18:24;;;;;;;9.13;4.75;;;10.60;55.10;;;;;;5018445;28;20056;-88
2023/04/20 06:20:50;;;;;;;5.90;4.88;;;10.70;55.10;;;;;;5013867;28;20034;-87
2023/04/20 06:23:16;;;;;;;9.85;5.55;;;10.90;55.20;;;;;;5019557;28;20028;-93
2023/04/20 06:25:42;;;;;;;7.43;5.72;;;11.10;55.30;;;;;;5017368;28;20545;-90
2023/04/20 06:28:08;;;;;;;7.07;5.22;;;11.30;55.20;;;;;;5024091;28;20040;-92
2023/04/20 06:30:34;;;;;;;9.32;6.30;;;11.50;55.10;;;;;;5024010;28;20037;-93
2023/04/20 06:33:01;;;;;;;10.07;5.60;;;11.80;55.10;;;;;;5027901;28;20050;-92
2023/04/20 06:35:28;;;;;;;7.47;5.60;;;12.10;55.00;;;;;;5024139;28;20080;-93
2023/04/20 06:37:56;;;;;;;8.45;5.75;;;12.40;54.90;;;;;;5023966;28;20084;-94
2023/04/20 06:40:26;;;;;;;8.68;6.03;;;12.80;54.90;;;;;;5020197;28;20045;-87
2023/04/20 06:42:52;;;;;;;6.82;5.55;;;13.10;54.70;;;;;;5016362;28;20041;-88
2023/04/20 06:45:18;;;;;;;8.80;6.22;;;13.40;54.40;;;;;;5011259;28;20148;-88
2023/04/20 06:47:44;;;;;;;8.80;5.38;;;13.70;54.20;;;;;;5017829;28;20025;-89
2023/04/20 06:50:10;;;;;;;9.50;6.57;;;14.00;54.00;;;;;;5000853;28;20041;-86
2023/04/20 06:52:37;;;;;;;8.07;6.28;;;14.30;53.80;;;;;;5014399;28;20087;-88
2023/04/20 06:55:03;;;;;;;8.73;5.13;;;14.60;53.70;;;;;;4995943;28;20034;-88
2023/04/20 06:57:29;;;;;;;11.07;6.57;;;14.90;53.40;;;;;;5015621;28;20693;-86
2023/04/20 06:59:55;;;;;;;9.15;6.78;;;15.30;53.20;;;;;;5017789;28;20040;-88
2023/04/20 07:02:21;;;;;;;7.43;5.93;;;15.60;52.90;;;;;;5018139;28;20029;-89
2023/04/20 07:04:47;;;;;;;10.73;7.15;;;16.00;52.60;;;;;;5018351;28;20046;-86
2023/04/20 07:07:12;;;;;;;9.35;5.88;;;16.30;52.00;;;;;;5017995;28;20033;-88
2023/04/20 07:09:38;;;;;;;12.32;6.20;;;16.60;51.60;;;;;;4992950;28;20123;-86
2023/04/20 07:12:04;;;;;;;9.23;7.22;;;17.00;51.30;;;;;;5017523;28;20060;-87
2023/04/20 07:14:30;;;;;;;10.02;6.72;;;17.30;50.90;;;;;;5020633;28;20112;-86
2023/04/20 07:16:56;;;;;;;9.50;6.30;;;17.60;50.40;;;;;;5018016;28;20038;-86
2023/04/20 07:19:22;;;;;;;11.52;5.93;;;17.90;50.10;;;;;;5018782;28;20049;-89
2023/04/20 07:21:48;;;;;;;8.13;6.22;;;18.10;49.70;;;;;;5017489;28;20645;-88
2023/04/20 07:24:14;;;;;;;8.50;5.50;;;18.30;49.40;;;;;;5017147;28;20045;-87
2023/04/20 07:26:40;;;;;;;7.75;5.68;;;18.40;49.00;;;;;;5014386;28;20109;-92
2023/04/20 07:29:05;;;;;;;7.68;4.80;;;18.40;48.50;;;;;;5016635;28;20040;-90
2023/04/20 07:31:31;;;;;;;8.02;5.38;;;18.30;48.10;;;;;;5016681;28;20048;-93
2023/04/20 07:33:57;;;;;;;9.52;6.00;;;18.20;48.60;;;;;;5025856;28;20037;-91
2023/04/20 07:36:23;;;;;;;8.45;5.85;;;18.10;47.70;;;;;;5007869;28;20037;-90
2023/04/20 07:38:49;;;;;;;9.60;5.85;;;17.90;47.20;;;;;;5010665;28;20843;-86
2023/04/20 07:41:15;;;;;;;9.05;5.75;;;17.80;47.10;;;;;;5019937;28;20025;-93
2023/04/20 07:43:41;;;;;;;7.22;5.22;;;17.70;47.00;;;;;;5015824;28;20780;-84
2023/04/20 07:46:07;;;;;;;6.90;5.30;;;17.60;47.00;;;;;;5015953;28;20045;-96
2023/04/20 07:48:33;;;;;;;9.70;5.93;;;17.60;47.00;;;;;;5014779;28;20177;-92
2023/04/20 07:51:00;;;;;;;9.05;4.57;;;17.70;47.10;;;;;;4995594;28;20061;-82
2023/04/20 07:53:27;;;;;;;6.82;4.40;;;17.70;47.10;;;;;;5013504;28;20032;-80
2023/04/20 07:55:54;;;;;;;5.72;3.97;;;17.80;47.60;;;;;;5018258;28;20056;-85
2023/04/20 07:58:20;;;;;;;4.90;3.63;;;17.90;48.00;;;;;;5017220;28;20444;-83
2023/04/20 08:00:46;;;;;;;6.45;4.13;;;18.10;48.50;;;;;;5018466;28;20037;-87
2023/04/20 08:03:13;;;;;;;4.97;3.30;;;18.30;49.00;;;;;;5019805;28;20033;-88
2023/04/20 08:05:39;;;;;;;5.75;4.05;;;18.40;49.40;;;;;;5011545;28;20045;-87
2023/04/20 08:08:06;;;;;;;7.25;4.07;;;18.50;49.80;;;;;;4997382;28;20044;-84
2023/04/20 08:10:33;;;;;;;6.30;3.67;;;18.50;50.00;;;;;;5014588;28;20525;-85
2023/04/20 08:12:59;;;;;;;6.53;3.70;;;18.60;50.10;;;;;;5017641;28;20137;-82
2023/04/20 08:15:25;;;;;;;5.78;3.25;;;18.70;50.40;;;;;;5015022;28;20033;-83
2023/04/20 08:17:51;;;;;;;3.78;3.28;;;18.70;50.40;;;;;;5016456;28;20060;-82
2023/04/20 08:20:18;;;;;;;5.05;3.30;;;18.70;50.50;;;;;;4996142;28;20108;-82
2023/04/20 08:22:44;;;;;;;7.13;2.90;;;18.70;50.70;;;;;;4999873;28;20030;-83
2023/04/20 08:25:10;;;;;;;4.65;3.58;;;18.60;50.70;;;;;;5013455;28;20056;-84
2023/04/20 08:27:36;;;;;;;4.18;2.92;;;18.60;51.00;;;;;;5018021;28;20475;-81
2023/04/20 08:30:03;;;;;;;5.63;3.63;;;18.50;51.00;;;;;;5013682;28;20493;-81
2023/04/20 08:32:29;;;;;;;6.75;3.00;;;18.40;51.10;;;;;;5001028;28;20029;-88
2023/04/20 08:34:55;;;;;;;8.40;3.78;;;18.40;51.30;;;;;;5015542;28;20396;-93
2023/04/20 08:37:21;;;;;;;4.22;2.80;;;18.30;51.20;;;;;;5005253;28;20076;-94
2023/04/20 08:39:47;;;;;;;7.03;3.85;;;18.20;50.80;;;;;;5008250;28;20416;-91
2023/04/20 08:42:13;;;;;;;7.75;4.10;;;18.10;50.80;;;;;;5019045;28;20032;-90
2023/04/20 08:44:39;;;;;;;6.28;2.95;;;18.10;51.20;;;;;;5009226;28;20197;-90
2023/04/20 08:47:07;;;;;;;8.07;3.55;;;18.00;51.30;;;;;;5021859;28;20111;-89
2023/04/20 08:49:34;;;;;;;5.22;3.08;;;18.10;51.70;;;;;;5026561;28;20053;-92
2023/04/20 08:52:02;;;;;;;5.20;3.28;;;18.10;51.80;;;;;;5024737;28;20046;-91
2023/04/20 08:54:27;;;;;;;4.68;3.10;;;18.20;52.00;;;;;;5026326;28;20041;-92
2023/04/20 08:56:55;;;;;;;9.10;2.83;;;18.20;52.00;;;;;;5024739;28;20049;-90
2023/04/20 08:59:21;;;;;;;4.97;3.00;;;18.20;51.80;;;;;;5031798;28;20041;-93
2023/04/20 09:01:47;;;;;;;5.15;3.00;;;18.30;52.00;;;;;;5029612;28;20067;-88
2023/04/20 09:04:18;;;;;;;4.93;3.20;;;18.30;52.00;;;;;;5021672;28;20033;-90
2023/04/20 09:06:52;;;;;;;5.18;3.22;;;18.40;52.00;;;;;;5028263;28;20029;-89
2023/04/20 09:09:20;;;;;;;6.55;3.25;;;18.50;52.10;;;;;;5020402;28;20045;-92
2023/04/20 09:11:46;;;;;;;3.88;2.90;;;18.50;52.00;;;;;;5021415;28;20037;-90
2023/04/20 09:14:17;;;;;;;6.40;3.25;;;18.60;52.10;;;;;;5021984;28;20210;-86
2023/04/20 09:17:01;;;;;;;5.25;2.13;;;18.50;51.70;;;;;;5023944;28;20045;-86
2023/04/20 09:19:28;;;;;;;6.03;2.33;;;18.60;51.80;;;;;;5047211;28;20036;-84
2023/04/20 09:21:56;;;;;;;5.50;2.78;;;18.70;51.90;;;;;;5050456;28;20020;-86
2023/04/20 09:24:30;;;;;;;6.63;2.85;;;18.70;51.90;;;;;;5051821;28;20087;-85
2023/04/20 09:26:56;;;;;;;4.35;2.60;;;18.80;52.00;;;;;;5055155;28;20209;-85
2023/04/20 09:29:24;;;;;;;4.57;2.22;;;18.80;51.90;;;;;;5051495;28;20048;-87
2023/04/20 09:31:51;;;;;;;3.83;3.05;;;18.90;52.00;;;;;;5050637;28;20022;-86
2023/04/20 09:34:18;;;;;;;4.35;2.65;;;19.00;52.10;;;;;;5030470;28;20037;-85
2023/04/20 09:36:53;;;;;;;3.60;2.67;;;19.00;52.00;;;;;;5025215;28;20045;-86
2023/04/20 09:39:21;;;;;;;4.63;2.83;;;19.00;51.90;;;;;;5020100;28;20053;-84
2023/04/20 09:41:48;;;;;;;3.30;2.17;;;19.10;51.90;;;;;;5018852;28;20437;-84
2023/04/20 09:44:15;;;;;;;6.50;3.05;;;19.10;51.80;;;;;;5025240;28;20581;-86
2023/04/20 09:46:42;;;;;;;3.90;2.65;;;19.20;51.90;;;;;;5018802;28;20057;-83
2023/04/20 09:49:11;;;;;;;5.72;2.78;;;19.20;51.80;;;;;;5018129;28;20056;-83
2023/04/20 09:51:40;;;;;;;4.55;2.25;;;19.30;51.70;;;;;;5026915;28;20078;-84
2023/04/20 09:54:07;;;;;;;3.65;2.53;;;19.30;51.50;;;;;;5022068;28;20041;-83
2023/04/20 09:56:34;;;;;;;3.75;3.00;;;19.30;51.30;;;;;;5007642;28;20041;-84
2023/04/20 09:59:02;;;;;;;6.72;2.67;;;19.30;51.00;;;;;;5013101;28;20136;-86
2023/04/20 10:01:33;;;;;;;4.40;2.85;;;19.40;51.10;;;;;;5019674;28;20062;-85
2023/04/20 10:04:02;;;;;;;6.95;2.60;;;19.40;51.00;;;;;;5004836;28;20049;-86
2023/04/20 10:06:29;;;;;;;7.15;3.20;;;19.40;50.90;;;;;;5022118;28;20156;-84
2023/04/20 10:08:56;;;;;;;4.47;2.33;;;19.50;50.80;;;;;;5017326;28;20073;-86
2023/04/20 10:11:34;;;;;;;4.45;2.88;;;19.50;50.60;;;;;;4999004;28;20075;-86
2023/04/20 10:14:21;;;;;;;4.97;2.78;;;19.50;50.50;;;;;;5017299;28;20036;-85
2023/04/20 10:17:05;;;;;;;4.00;2.65;;;19.60;50.60;;;;;;5016148;28;20045;-88
2023/04/20 10:19:42;;;;;;;4.80;2.92;;;19.60;50.40;;;;;;5019765;28;20822;-84
2023/04/20 10:22:10;;;;;;;4.30;2.58;;;19.70;50.50;;;;;;5002668;28;20041;-85
2023/04/20 10:24:37;;;;;;;4.78;2.38;;;19.70;50.30;;;;;;5014889;28;20627;-83
2023/04/20 10:27:14;;;;;;;5.55;2.90;;;19.70;50.00;;;;;;5001293;28;20906;-85
2023/04/20 10:29:40;;;;;;;4.25;2.85;;;19.70;49.80;;;;;;5010977;28;20040;-83
2023/04/20 10:32:06;;;;;;;2.40;2.20;;;19.80;49.80;;;;;;5019067;28;20048;-87
2023/04/20 10:34:34;;;;;;;4.40;2.42;;;19.80;49.60;;;;;;5017698;28;20037;-84
2023/04/20 10:37:12;;;;;;;8.43;3.03;;;19.90;49.50;;;;;;5020447;28;20855;-88
2023/04/20 10:39:45;;;;;;;4.82;3.15;;;19.90;49.30;;;;;;5036705;28;20667;-90
2023/04/20 10:42:12;;;;;;;3.95;2.80;;;19.90;49.10;;;;;;5020618;28;20048;-89
2023/04/20 10:44:51;;;;;;;4.80;3.53;;;19.90;48.90;;;;;;5014984;28;20036;-88
2023/04/20 10:47:29;;;;;;;5.80;3.45;;;19.90;49.00;;;;;;5021715;28;20033;-89
2023/04/20 10:50:06;;;;;;;7.72;3.75;;;19.90;48.50;;;;;;5016416;28;20076;-91
2023/04/20 10:52:34;;;;;;;5.07;3.20;;;19.90;48.20;;;;;;5011724;28;20041;-87
2023/04/20 10:55:01;;;;;;;5.93;4.30;;;19.80;48.00;;;;;;5026228;28;20175;-91
2023/04/20 10:57:30;;;;;;;7.15;5.25;;;19.80;47.80;;;;;;5009900;28;20671;-86
2023/04/20 10:59:56;;;;;;;8.02;4.68;;;19.80;47.80;;;;;;4990946;28;20049;-89
2023/04/20 11:02:22;;;;;;;6.80;5.05;;;19.80;47.60;;;;;;5007856;28;20072;-85
2023/04/20 11:04:48;;;;;;;6.97;4.60;;;19.80;47.40;;;;;;5014442;28;20049;-84
2023/04/20 11:07:14;;;;;;;7.85;4.22;;;19.80;47.10;;;;;;5017453;28;20502;-87
2023/04/20 11:09:41;;;;;;;6.20;4.85;;;19.80;46.80;;;;;;5020480;28;20037;-90
2023/04/20 11:12:10;;;;;;;5.60;3.75;;;19.80;46.60;;;;;;5000856;28;20017;-82
2023/04/20 11:14:49;;;;;;;4.25;3.20;;;19.80;46.80;;;;;;5020757;28;20120;-83
2023/04/20 11:17:14;;;;;;;6.43;2.85;;;19.90;47.40;;;;;;5015467;28;20080;-86
2023/04/20 11:19:40;;;;;;;6.30;3.30;;;19.90;47.80;;;;;;5014563;28;20036;-86
2023/04/20 11:22:06;;;;;;;4.70;3.88;;;20.00;48.10;;;;;;5019774;28;20033;-84
2023/04/20 11:24:33;;;;;;;4.70;3.28;;;20.20;48.60;;;;;;5021360;28;20083;-85
2023/04/20 11:27:01;;;;;;;4.75;3.28;;;20.30;48.80;;;;;;4990808;28;20819;-85
2023/04/20 11:29:31;;;;;;;3.88;2.38;;;20.40;48.90;;;;;;5014583;28;20056;-84
2023/04/20 11:31:58;;;;;;;6.22;2.92;;;20.50;48.90;;;;;;5018698;28;20261;-84
2023/04/20 11:34:24;;;;;;;12.60;3.47;;;20.60;48.80;;;;;;5017942;28;20548;-86
2023/04/20 11:36:50;;;;;;;5.47;2.95;;;20.70;48.70;;;;;;5019416;28;20031;-85
2023/04/20 11:39:27;;;;;;;5.63;3.63;;;20.80;48.70;;;;;;5017254;28;20497;-84
2023/04/20 11:41:53;;;;;;;3.45;3.03;;;20.90;48.70;;;;;;5014084;28;20234;-87
2023/04/20 11:44:20;;;;;;;3.45;2.65;;;20.90;48.50;;;;;;5016196;28;20116;-85
2023/04/20 11:46:52;;;;;;;4.90;3.08;;;21.00;48.50;;;;;;5018989;28;20685;-85
2023/04/20 11:49:19;;;;;;;3.42;2.95;;;21.10;48.60;;;;;;5004760;28;20111;-86
2023/04/20 11:51:46;;;;;;;4.10;2.40;;;21.10;48.40;;;;;;5004347;28;20166;-84
2023/04/20 11:54:13;;;;;;;4.63;2.90;;;21.20;48.40;;;;;;5010662;28;20041;-85
2023/04/20 11:56:43;;;;;;;3.50;2.92;;;21.30;48.40;;;;;;5014335;28;20138;-84
2023/04/20 11:59:10;;;;;;;5.47;2.63;;;21.30;48.10;;;;;;5011225;28;20044;-85
2023/04/20 12:01:36;;;;;;;3.88;2.38;;;21.40;48.00;;;;;;5016842;28;20460;-87
2023/04/20 12:04:03;;;;;;;3.80;2.45;;;21.50;48.20;;;;;;5014990;28;20038;-85
2023/04/20 12:06:30;;;;;;;3.03;2.28;;;21.50;47.90;;;;;;5016812;28;20033;-86
2023/04/20 12:08:56;;;;;;;3.25;2.08;;;21.60;47.80;;;;;;5014518;28;20045;-85
2023/04/20 12:11:23;;;;;;;3.58;2.30;;;21.60;47.60;;;;;;5017024;28;20044;-85
2023/04/20 12:13:49;;;;;;;3.08;2.60;;;21.80;47.70;;;;;;5015988;28;20037;-84
2023/04/20 12:16:15;;;;;;;5.43;2.17;;;21.80;47.40;;;;;;5011206;28;20041;-85
2023/04/20 12:18:41;;;;;;;4.10;2.90;;;21.80;47.20;;;;;;5012171;28;20045;-85
2023/04/20 12:21:07;;;;;;;4.00;2.45;;;21.90;47.20;;;;;;5017975;28;20077;-85
2023/04/20 12:23:35;;;;;;;3.08;1.92;;;22.00;47.20;;;;;;5013846;28;20152;-83
2023/04/20 12:26:03;;;;;;;2.83;2.10;;;22.00;47.10;;;;;;5016363;28;20033;-87
2023/04/20 12:28:30;;;;;;;2.60;2.40;;;22.10;47.10;;;;;;5016658;28;20083;-83
2023/04/20 12:30:55;;;;;;;2.30;2.10;;;22.10;46.80;;;;;;5012717;28;20034;-87
2023/04/20 12:33:21;;;;;;;3.22;2.33;;;22.20;46.80;;;;;;5018945;28;20926;-82
2023/04/20 12:35:47;;;;;;;4.60;2.63;;;22.30;46.80;;;;;;5007694;28;20030;-84
2023/04/20 12:38:13;;;;;;;2.60;2.20;;;22.30;46.60;;;;;;5012441;28;20055;-84
2023/04/20 12:40:39;;;;;;;2.72;2.40;;;22.30;46.30;;;;;;5011730;28;20041;-82
2023/04/20 12:43:05;;;;;;;2.72;2.35;;;22.40;46.40;;;;;;5015529;28;20037;-82
2023/04/20 12:45:31;;;;;;;2.50;1.80;;;22.50;46.50;;;;;;5013286;28;20047;-83
2023/04/20 12:47:57;;;;;;;3.95;2.45;;;22.60;46.60;;;;;;5014738;28;20898;-89
2023/04/20 12:50:24;;;;;;;3.75;2.53;;;22.70;46.50;;;;;;5007587;28;20041;-85